Time;durP1;ratioP1;P1;durP2;ratioP2;P2;SDS_P1;SDS_P2;PMS_P1;PMS_P2;Temp;Humidity;BMP_temperature;BMP_pressure;BME280_temperature;BME280_humidity;BME280_pressure;Samples;Min_cycle;Max_cycle;Signal;HPM_P1;HPM_P2
2022/06/13 00:01:29;;;;;;;4.60;4.40;;;;;;;13.74;95.32;65640.81;5114204;28;20205;-73
2022/06/13 00:03:57;;;;;;;5.13;4.43;;;;;;;13.68;95.71;65626.31;5113919;28;20188;-73
2022/06/13 00:06:24;;;;;;;4.43;4.30;;;;;;;13.62;95.88;65606.59;5114454;28;20587;-73
2022/06/13 00:08:50;;;;;;;4.37;4.17;;;;;;;13.60;96.13;65609.59;5113325;28;20544;-73
2022/06/13 00:11:20;;;;;;;3.70;3.60;;;;;;;13.59;96.23;65606.44;5113795;28;20261;-72
2022/06/13 00:13:49;;;;;;;4.17;4.07;;;;;;;13.58;96.41;65594.91;5113841;28;20262;-73
2022/06/13 00:16:16;;;;;;;4.63;4.07;;;;;;;13.53;96.50;65596.63;5113786;28;20193;-73
2022/06/13 00:18:47;;;;;;;4.50;4.13;;;;;;;13.47;96.90;65593.66;5114232;28;20209;-73
2022/06/13 00:21:23;;;;;;;5.90;4.13;;;;;;;13.39;97.65;65584.22;5114270;28;20205;-73
2022/06/13 00:23:50;;;;;;;5.20;4.80;;;;;;;13.34;97.65;65576.59;5113752;28;20184;-73
2022/06/13 00:26:21;;;;;;;4.10;3.90;;;;;;;13.32;98.07;65574.38;5113685;28;20658;-73
2022/06/13 00:28:49;;;;;;;4.80;4.70;;;;;;;13.31;98.55;65588.91;5113995;28;20615;-73
2022/06/13 00:31:16;;;;;;;5.07;4.37;;;;;;;13.25;98.71;65566.59;5114255;28;20231;-72
2022/06/13 00:33:42;;;;;;;4.20;4.00;;;;;;;13.27;98.97;65570.88;5113652;28;20264;-72
2022/06/13 00:36:09;;;;;;;4.70;4.20;;;;;;;13.27;99.00;65566.22;5113901;28;20189;-72
2022/06/13 00:38:39;;;;;;;3.93;3.83;;;;;;;13.23;99.20;65564.41;5113487;28;20257;-72
2022/06/13 00:41:10;;;;;;;4.53;4.40;;;;;;;;;;5113497;28;20213;-72
2022/06/13 00:43:40;;;;;;;4.87;4.67;;;;;;;13.04;99.32;65541.22;5113586;28;20185;-72
2022/06/13 00:46:20;;;;;;;4.07;4.07;;;;;;;12.87;99.46;65535.91;5113817;28;20189;-72
2022/06/13 00:49:00;;;;;;;4.80;4.60;;;;;;;12.70;100.00;65506.03;5113792;28;20195;-72
2022/06/13 00:51:29;;;;;;;4.80;4.50;;;;;;;12.61;100.00;65496.63;5113716;28;20758;-72
2022/06/13 00:53:55;;;;;;;6.13;5.07;;;;;;;12.53;100.00;65487.72;5113462;28;20614;-72
2022/06/13 00:56:27;;;;;;;5.33;5.10;;;;;;;12.48;100.00;65482.72;5113480;28;20254;-72
2022/06/13 00:58:58;;;;;;;5.23;4.97;;;;;;;;;;5113964;28;20285;-72
2022/06/13 01:01:26;;;;;;;5.03;4.87;;;;;;;12.50;100.00;65484.97;5113674;28;20211;-72
2022/06/13 01:03:54;;;;;;;4.47;4.37;;;;;;;12.44;100.00;65480.34;5113228;28;20586;-72
2022/06/13 01:06:21;;;;;;;4.70;4.60;;;;;;;12.46;100.00;65490.94;5113654;28;20193;-72
2022/06/13 01:08:48;;;;;;;5.13;4.83;;;;;;;12.47;100.00;65486.84;5113314;28;20650;-72
2022/06/13 01:11:20;;;;;;;5.27;5.03;;;;;;;12.49;100.00;65504.13;5113235;28;20239;-73
2022/06/13 01:14:05;;;;;;;4.73;4.60;;;;;;;12.50;100.00;65484.41;5113622;28;20669;-73
2022/06/13 01:17:04;;;;;;;5.70;5.33;;;;;;;12.34;100.00;65467.75;5113552;28;20177;-73
2022/06/13 01:20:02;;;;;;;5.10;5.00;;;;;;;12.28;100.00;65466.28;5115896;28;20584;-73
2022/06/13 01:22:54;;;;;;;4.73;4.57;;;;;;;12.20;100.00;65452.19;5117019;28;20204;-73
2022/06/13 01:25:49;;;;;;;4.93;4.57;;;;;;;12.16;100.00;65450.38;5117310;28;20174;-73
2022/06/13 01:28:28;;;;;;;5.43;5.13;;;;;;;12.16;100.00;65444.63;5116952;28;20174;-73
2022/06/13 01:31:07;;;;;;;4.63;4.53;;;;;;;12.14;100.00;65463.75;5117289;28;20209;-73
2022/06/13 01:34:01;;;;;;;4.77;4.57;;;;;;;12.15;100.00;65451.31;5117448;28;20169;-73
2022/06/13 01:36:33;;;;;;;5.00;4.70;;;;;;;12.13;100.00;65452.25;5117098;28;20227;-72
2022/06/13 01:39:26;;;;;;;5.30;5.07;;;;;;;12.15;100.00;65448.72;5117213;28;20209;-72
2022/06/13 01:42:10;;;;;;;5.37;5.13;;;;;;;12.18;100.00;65459.84;5116735;28;20209;-72
2022/06/13 01:44:51;;;;;;;5.60;5.30;;;;;;;;;;5116942;28;20165;-72
2022/06/13 01:47:27;;;;;;;5.83;5.40;;;;;;;12.17;100.00;65451.47;5116884;28;20625;-72
2022/06/13 01:50:11;;;;;;;5.50;5.30;;;;;;;12.12;100.00;65443.31;5116524;28;20242;-72
2022/06/13 01:52:55;;;;;;;5.07;4.87;;;;;;;12.16;100.00;65458.19;5117044;28;20185;-72
2022/06/13 01:55:33;;;;;;;6.53;6.00;;;;;;;12.16;100.00;65452.97;5116440;28;20171;-72
2022/06/13 01:58:16;;;;;;;5.93;5.63;;;;;;;12.22;100.00;65464.84;5116325;28;20193;-73
2022/06/13 02:00:50;;;;;;;6.03;5.47;;;;;;;12.25;100.00;65455.16;5116844;28;20212;-73
2022/06/13 02:03:20;;;;;;;5.30;5.17;;;;;;;12.28;100.00;65461.06;5116340;28;20232;-73
2022/06/13 02:05:54;;;;;;;5.13;4.97;;;;;;;12.32;100.00;65462.94;5116494;28;20189;-73
2022/06/13 02:08:26;;;;;;;5.87;5.37;;;;;;;12.35;100.00;65468.84;5116711;28;20184;-73
2022/06/13 02:11:04;;;;;;;5.53;5.13;;;;;;;12.39;100.00;65483.72;5116099;28;20701;-73
2022/06/13 02:13:38;;;;;;;5.57;5.37;;;;;;;12.39;100.00;65478.50;5116090;28;20173;-73
2022/06/13 02:16:12;;;;;;;6.03;5.63;;;;;;;12.40;100.00;65473.84;5116060;28;20176;-73
2022/06/13 02:18:44;;;;;;;5.43;5.43;;;;;;;;;;5116180;28;20207;-73
2022/06/13 02:21:14;;;;;;;5.93;5.83;;;;;;;12.43;100.00;65487.59;5116033;28;20204;-72
2022/06/13 02:23:50;;;;;;;7.07;6.37;;;;;;;12.43;100.00;65487.59;5115887;28;20182;-72
2022/06/13 02:26:19;;;;;;;5.57;5.37;;;;;;;;;;5116142;28;20166;-72
2022/06/13 02:28:53;;;;;;;5.47;5.33;;;;;;;12.44;100.00;65493.91;5115793;28;20235;-72
2022/06/13 02:31:27;;;;;;;5.13;4.83;;;;;;;12.40;100.00;65474.41;5115101;28;20208;-72
2022/06/13 02:34:02;;;;;;;5.77;5.40;;;;;;;12.41;100.00;65477.56;5116266;28;20202;-72
2022/06/13 02:36:44;;;;;;;5.83;4.97;;;;;;;12.43;100.00;65476.63;5115640;28;20181;-72
2022/06/13 02:39:18;;;;;;;5.60;5.33;;;;;;;;;;5116076;28;20189;-72
2022/06/13 02:42:00;;;;;;;5.27;4.87;;;;;;;12.40;100.00;65476.47;5116015;28;20216;-73
2022/06/13 02:44:43;;;;;;;5.83;5.40;;;;;;;12.37;100.00;65476.28;5115427;28;20185;-73
2022/06/13 02:47:24;;;;;;;5.37;5.23;;;;;;;12.34;100.00;65467.19;5115729;28;20172;-73
2022/06/13 02:49:58;;;;;;;5.40;5.30;;;;;;;12.29;100.00;65464.81;5115939;28;20169;-73
2022/06/13 02:52:52;;;;;;;5.47;5.17;;;;;;;12.29;100.00;65467.41;5115853;28;20601;-72
2022/06/13 02:55:19;;;;;;;5.37;5.20;;;;;;;12.28;100.00;65465.72;5115572;28;20225;-73
2022/06/13 02:58:01;;;;;;;5.30;5.10;;;;;;;12.27;100.00;65464.63;5115438;28;20217;-73
2022/06/13 03:00:58;;;;;;;5.50;5.30;;;;;;;12.29;100.00;65466.84;5115578;28;20203;-73
2022/06/13 03:03:47;;;;;;;5.10;5.00;;;;;;;12.30;100.00;65460.72;5115005;28;20198;-73
2022/06/13 03:06:23;;;;;;;4.63;4.50;;;;;;;12.31;100.00;65479.47;5115074;28;20176;-73
2022/06/13 03:08:55;;;;;;;5.50;5.30;;;;;;;12.29;100.00;65464.81;5115249;28;20222;-73
2022/06/13 03:11:21;;;;;;;6.23;5.90;;;;;;;;;;5114904;28;20211;-73
2022/06/13 03:14:10;;;;;;;5.77;5.47;;;;;;;12.28;100.00;65466.28;5115148;28;20593;-73
2022/06/13 03:16:53;;;;;;;8.57;6.10;;;;;;;12.33;100.00;65481.69;5115095;28;20189;-73
2022/06/13 03:19:32;;;;;;;6.87;6.20;;;;;;;12.30;100.00;65473.72;5114715;28;20684;-73
2022/06/13 03:22:05;;;;;;;6.60;6.30;;;;;;;12.34;100.00;65467.75;5114636;28;20205;-73
2022/06/13 03:24:46;;;;;;;8.20;6.40;;;;;;;12.36;100.00;65475.19;5114972;28;20173;-73
2022/06/13 03:27:27;;;;;;;6.87;6.53;;;;;;;12.37;100.00;65471.09;5114925;28;20173;-73
2022/06/13 03:30:08;;;;;;;5.77;5.60;;;;;;;12.40;100.00;65474.41;5114870;28;20174;-73
2022/06/13 03:35:43;;;;;;;6.80;6.27;;;;;;;12.47;100.00;65491.47;5115074;28;20226;-73
2022/06/13 03:38:14;;;;;;;6.30;5.97;;;;;;;12.48;100.00;65482.19;5114582;28;20204;-73
2022/06/13 03:40:46;;;;;;;6.93;6.40;;;;;;;12.47;100.00;65481.06;5114623;28;20206;-72
2022/06/13 03:43:21;;;;;;;6.23;5.70;;;;;;;12.49;100.00;65489.03;5113544;28;20543;-72
2022/06/13 03:45:55;;;;;;;6.43;5.97;;;;;;;12.52;100.00;65492.38;5114856;28;20189;-72
2022/06/13 03:48:49;;;;;;;7.27;6.40;;;;;;;12.53;100.00;65493.50;5114579;28;20297;-72
2022/06/13 03:51:42;;;;;;;5.53;5.30;;;;;;;12.52;100.00;65494.44;5114143;28;20202;-73
2022/06/13 03:54:23;;;;;;;6.43;6.10;;;;;;;12.53;100.00;65487.72;5095875;28;20216;-73
2022/06/13 03:57:01;;;;;;;6.70;6.13;;;;;;;12.53;100.00;65488.28;5114477;28;20182;-73
2022/06/13 03:59:38;;;;;;;6.17;5.57;;;;;;;12.54;100.00;65486.78;5114289;28;20196;-73
2022/06/13 04:02:08;;;;;;;9.60;6.37;;;;;;;;;;5113906;28;20209;-72
2022/06/13 04:04:43;;;;;;;6.37;5.83;;;;;;;12.57;100.00;65492.75;5114264;28;20643;-72
2022/06/13 04:07:10;;;;;;;6.53;6.13;;;;;;;12.60;100.00;65492.91;5114259;28;20688;-72
2022/06/13 04:10:02;;;;;;;7.33;6.73;;;;;;;12.64;100.00;65502.53;5113931;28;20189;-72
2022/06/13 04:12:44;;;;;;;5.63;5.43;;;;;;;12.73;100.00;65525.56;5101112;28;20318;-72
2022/06/13 04:15:40;;;;;;;6.20;5.83;;;;;;;12.75;100.00;65514.75;5114451;28;20181;-72
2022/06/13 04:18:30;;;;;;;5.87;5.47;;;;;;;12.78;100.00;65525.91;5096003;28;20221;-72
2022/06/13 04:21:20;;;;;;;9.67;6.53;;;;;;;12.80;100.00;65514.56;5114156;28;20216;-72
2022/06/13 04:24:14;;;;;;;6.23;6.03;;;;;;;12.84;100.00;65537.78;5114345;28;20171;-73
2022/06/13 04:26:50;;;;;;;8.60;6.67;;;;;;;12.83;100.00;65528.84;5113650;28;20649;-73
2022/06/13 04:29:35;;;;;;;6.30;6.00;;;;;;;12.86;100.00;65527.00;5114194;28;20227;-74
2022/06/13 04:32:04;;;;;;;8.20;6.23;;;;;;;;;;5113613;28;20214;-73
2022/06/13 04:34:43;;;;;;;7.03;6.50;;;;;;;12.96;100.00;65540.13;5113976;28;20201;-73
2022/06/13 04:37:11;;;;;;;8.83;6.67;;;;;;;12.96;100.00;65534.94;5114213;28;20623;-74
2022/06/13 04:39:40;;;;;;;6.80;6.50;;;;;;;13.02;100.00;65546.25;5113541;28;20209;-74
2022/06/13 04:42:09;;;;;;;10.90;6.33;;;;;;;13.08;100.00;65558.13;5114367;28;20561;-73
2022/06/13 04:44:36;;;;;;;8.10;6.60;;;;;;;;;;5113573;28;20257;-75
2022/06/13 04:47:05;;;;;;;7.13;6.50;;;;;;;13.23;100.00;65564.41;5095811;28;20188;-75
2022/06/13 04:49:35;;;;;;;7.97;7.27;;;;;;;13.11;100.00;65556.25;5113797;28;20184;-76
2022/06/13 04:52:13;;;;;;;6.90;6.60;;;;;;;13.03;100.00;65542.72;5113475;28;20602;-76
2022/06/13 04:54:47;;;;;;;11.67;6.87;;;;;;;;;;5098007;28;20189;-76
2022/06/13 04:57:15;;;;;;;7.27;6.87;;;;;;;12.99;100.00;65537.69;5117794;28;20176;-76
2022/06/13 04:59:43;;;;;;;8.53;7.27;;;;;;;13.00;100.00;65544.03;5117660;28;20209;-76
2022/06/13 05:02:12;;;;;;;11.30;7.63;;;;;;;;;;5117275;28;20618;-76
2022/06/13 05:04:38;;;;;;;9.50;8.03;;;;;;;12.90;100.00;65534.03;5117453;28;20169;-76
2022/06/13 05:07:18;;;;;;;8.63;7.40;;;;;;;12.95;100.00;65531.78;5117585;28;20192;-76
2022/06/13 05:09:52;;;;;;;6.57;5.93;;;;;;;12.92;100.00;65535.69;5117804;28;20169;-75
2022/06/13 05:12:41;;;;;;;8.07;7.47;;;;;;;12.92;100.00;65533.09;5117072;28;20212;-75
2022/06/13 05:15:19;;;;;;;6.87;6.57;;;;;;;12.95;100.00;65544.78;5117731;28;20216;-75
2022/06/13 05:18:04;;;;;;;9.93;7.60;;;;;;;13.05;100.00;65546.97;5117429;28;20531;-76
2022/06/13 05:20:46;;;;;;;9.20;7.67;;;;;;;12.98;100.00;65560.03;5099007;28;20176;-76
2022/06/13 05:23:31;;;;;;;7.33;6.93;;;;;;;12.90;100.00;65530.88;5117284;28;20575;-76
2022/06/13 05:25:59;;;;;;;7.97;7.10;;;;;;;12.92;100.00;65536.25;5117323;28;20165;-76
2022/06/13 05:28:29;;;;;;;11.13;7.53;;;;;;;12.94;100.00;65533.28;5098687;28;20203;-76
2022/06/13 05:31:00;;;;;;;8.13;7.33;;;;;;;12.90;100.00;65528.81;5116855;28;20208;-76
2022/06/13 05:33:33;;;;;;;14.47;8.03;;;;;;;12.91;100.00;65529.94;5117409;28;20181;-76
2022/06/13 05:36:02;;;;;;;15.27;8.13;;;;;;;12.86;100.00;65537.41;5098444;28;20192;-76
2022/06/13 05:38:35;;;;;;;7.30;6.30;;;;;;;12.92;100.00;65543.50;5116655;28;20208;-76
2022/06/13 05:41:01;;;;;;;8.17;7.13;;;;;;;12.92;100.00;65535.69;5116973;28;20209;-77
2022/06/13 05:43:28;;;;;;;7.67;7.00;;;;;;;;;;5117124;28;20181;-77
2022/06/13 05:45:55;;;;;;;7.50;7.20;;;;;;;12.95;100.00;65534.38;5116495;28;20188;-77
2022/06/13 05:48:23;;;;;;;11.37;7.50;;;;;;;12.97;100.00;65533.44;5116449;28;20718;-77
2022/06/13 05:50:50;;;;;;;14.33;7.33;;;;;;;13.03;100.00;65545.31;5116572;28;20209;-77
2022/06/13 05:53:21;;;;;;;7.30;6.67;;;;;;;;;;5104346;27;20180;-76
2022/06/13 05:55:50;;;;;;;9.27;8.10;;;;;;;13.14;100.00;65559.56;5110753;28;20193;-77
2022/06/13 05:58:17;;;;;;;8.77;7.73;;;;;;;;;;5116192;28;20188;-77
2022/06/13 06:00:50;;;;;;;8.70;7.87;;;;;;;13.20;100.00;65561.59;5114988;28;20220;-77
2022/06/13 06:03:16;;;;;;;12.20;8.13;;;;;;;13.26;100.00;65580.19;5116649;28;20193;-77
2022/06/13 06:05:44;;;;;;;8.17;7.53;;;;;;;13.31;100.00;65588.38;5114465;28;20615;-77
2022/06/13 06:08:19;;;;;;;10.57;8.27;;;;;;;13.38;100.00;65583.09;5115576;28;20550;-77
2022/06/13 06:10:47;;;;;;;16.20;7.77;;;;;;;13.38;100.00;65588.88;5097871;28;20216;-78
2022/06/13 06:13:15;;;;;;;9.57;8.67;;;;;;;13.35;100.00;65575.09;5116572;28;20654;-77
2022/06/13 06:15:43;;;;;;;12.13;7.80;;;;;;;13.39;100.00;65581.63;5116202;28;20194;-77
2022/06/13 06:18:12;;;;;;;17.17;8.27;;;;;;;13.43;100.00;65591.25;5098395;28;20234;-77
2022/06/13 06:20:39;;;;;;;9.60;8.83;;;;;;;13.43;100.00;65591.84;5098769;28;20227;-77
2022/06/13 06:23:07;;;;;;;11.43;8.53;;;;;;;13.41;100.00;65594.25;5081240;28;20193;-77
2022/06/13 06:25:34;;;;;;;9.50;8.57;;;;;;;;;;5097732;28;20188;-77
2022/06/13 06:28:01;;;;;;;8.73;7.83;;;;;;;13.54;100.00;65606.09;5116251;28;20708;-77
2022/06/13 06:30:28;;;;;;;9.87;8.87;;;;;;;13.66;100.00;65608.47;5115956;28;20207;-77
2022/06/13 06:32:56;;;;;;;12.47;8.83;;;;;;;13.69;100.00;65612.34;5115719;28;20557;-77
2022/06/13 06:35:24;;;;;;;16.10;9.43;;;;;;;;;;5116278;28;20181;-77
2022/06/13 06:37:52;;;;;;;12.27;9.63;;;;;;;13.59;100.00;65603.84;5115950;28;20174;-77
2022/06/13 06:40:20;;;;;;;16.17;9.27;;;;;;;;;;5115715;28;20746;-77
2022/06/13 06:42:46;;;;;;;24.00;10.23;;;;;;;13.73;100.00;65631.88;5115537;28;20196;-77
2022/06/13 06:45:23;;;;;;;14.27;10.70;;;;;;;13.80;100.00;65626.06;5081606;28;20209;-77
2022/06/13 06:47:50;;;;;;;18.07;10.97;;;;;;;;;;5115960;28;20185;-77
2022/06/13 06:50:20;;;;;;;13.10;10.10;;;;;;;13.75;100.00;65618.44;5115336;28;20176;-77
2022/06/13 06:52:48;;;;;;;15.40;10.33;;;;;;;13.79;100.00;65625.53;5097333;28;20200;-77
2022/06/13 07:00:51;;;;;;;24.50;10.97;;;;;;;13.85;100.00;65631.63;5115697;28;20212;-77
2022/06/13 07:03:18;;;;;;;18.00;12.43;;;;;;;;;;5097364;28;20197;-77
2022/06/13 07:05:46;;;;;;;21.07;14.10;;;;;;;13.88;100.00;65632.91;5115607;28;20184;-76
2022/06/13 07:08:15;;;;;;;23.43;13.93;;;;;;;13.94;100.00;65641.63;5096751;28;20200;-76
2022/06/13 07:10:45;;;;;;;17.13;12.73;;;;;;;;;;5114956;28;20242;-76
2022/06/13 07:13:12;;;;;;;23.37;12.57;;;;;;;;;;5115279;28;20180;-76
2022/06/13 07:15:48;;;;;;;21.47;11.70;;;;;;;14.08;100.00;65662.41;5114862;28;20174;-76
2022/06/13 07:18:14;;;;;;;29.07;14.20;;;;;;;14.18;100.00;65670.38;5114628;28;20673;-76
2022/06/13 07:20:41;;;;;;;22.80;15.97;;;;;;;14.18;100.00;65667.75;5096750;28;20238;-76
2022/06/13 07:23:07;;;;;;;20.80;14.93;;;;;;;;;;5114732;28;20188;-76
2022/06/13 07:25:34;;;;;;;20.03;14.13;;;;;;;14.41;100.00;65690.72;5114980;28;20189;-76
2022/06/13 07:28:01;;;;;;;16.00;14.17;;;;;;;14.41;100.00;65692.78;5114864;28;20181;-76
2022/06/13 07:30:29;;;;;;;25.43;15.73;;;;;;;14.43;100.00;65697.59;5114781;28;20189;-76
2022/06/13 07:32:56;;;;;;;32.27;14.87;;;;;;;14.40;100.00;65689.59;5114521;28;20188;-76
2022/06/13 07:35:25;;;;;;;23.70;15.10;;;;;;;14.41;100.00;65692.78;5114817;28;20189;-76
2022/06/13 07:40:37;;;;;;;22.83;13.57;;;;;;;14.44;100.00;65699.28;5114573;28;20213;-75
2022/06/13 07:43:06;;;;;;;26.33;15.13;;;;;;;14.42;100.00;65683.44;5114895;28;20181;-75
2022/06/13 07:45:40;;;;;;;14.83;13.30;;;;;;;14.55;100.00;65713.59;5114275;28;20189;-75
2022/06/13 07:48:21;;;;;;;21.23;14.87;;;;;;;14.55;100.00;65706.31;5114862;28;20265;-75
2022/06/13 07:50:48;;;;;;;26.83;14.73;;;;;;;14.59;100.00;65713.38;5114672;28;20328;-75
2022/06/13 07:53:15;;;;;;;30.20;16.43;;;;;;;14.77;100.00;65729.66;5114172;28;20189;-75
2022/06/13 07:56:02;;;;;;;24.30;15.40;;;;;;;14.91;100.00;65747.31;5114161;28;20183;-76
2022/06/13 07:58:34;;;;;;;19.40;15.60;;;;;;;14.91;100.00;65747.31;5095773;28;20197;-76
2022/06/13 08:01:01;;;;;;;18.03;14.70;;;;;;;14.86;100.00;65734.47;5114008;28;20227;-75
2022/06/13 08:03:29;;;;;;;17.47;14.27;;;;;;;;;;5114167;28;20197;-75
2022/06/13 08:05:57;;;;;;;15.27;11.97;;;;;;;15.06;100.00;65761.94;5113988;28;20184;-76
2022/06/13 08:08:24;;;;;;;19.17;13.00;;;;;;;15.09;100.00;65769.97;5113986;28;20200;-75
2022/06/13 08:10:52;;;;;;;25.70;12.53;;;;;;;15.13;100.00;65771.78;5113790;28;20231;-76
2022/06/13 08:13:21;;;;;;;17.77;11.13;;;;;;;15.20;100.00;65779.03;5113900;28;20200;-75
2022/06/13 08:15:48;;;;;;;14.47;10.20;;;;;;;15.05;100.00;65760.28;5114699;28;20535;-75
2022/06/13 08:18:15;;;;;;;14.73;10.40;;;;;;;15.22;100.00;65787.03;5113811;28;20193;-75
2022/06/13 08:20:48;;;;;;;15.50;11.23;;;;;;;15.16;100.00;65775.13;5113904;28;20216;-75
2022/06/13 08:23:16;;;;;;;19.40;11.27;;;;;;;15.26;100.00;65788.88;5113801;28;20214;-75
2022/06/13 08:25:42;;;;;;;12.23;10.17;;;;;;;15.37;100.00;65797.94;5113737;28;20529;-76
2022/06/13 08:28:10;;;;;;;14.23;9.63;;;;;;;15.41;100.00;65802.94;5113292;28;20226;-75
2022/06/13 08:30:40;;;;;;;9.60;8.67;;;;;;;15.42;100.00;65804.06;5113680;28;20197;-75
2022/06/13 08:33:07;;;;;;;9.53;8.57;;;;;;;15.60;100.00;65823.56;5113673;28;20215;-75
2022/06/13 08:35:33;;;;;;;10.47;9.23;;;;;;;;;;5113724;28;20234;-75
2022/06/13 08:38:03;;;;;;;17.43;7.97;;;;;;;;;;5113686;28;20197;-75
2022/06/13 08:40:50;;;;;;;10.60;9.60;;;;;;;;;;5113731;28;20201;-74
2022/06/13 08:43:31;;;;;;;8.00;7.53;;;;;;;15.45;98.16;65817.31;5078459;28;20235;-74
2022/06/13 08:46:10;;;;;;;8.53;7.83;;;;;;;15.66;97.66;65827.09;5113512;28;20673;-75
2022/06/13 08:48:40;;;;;;;10.30;8.57;;;;;;;15.69;94.58;65844.06;5113848;28;20272;-74
2022/06/13 08:51:09;;;;;;;14.53;8.07;;;;;;;;;;5108903;28;20657;-74
2022/06/13 08:53:51;;;;;;;10.47;7.73;;;;;;;;;;5118092;28;20528;-76
2022/06/13 08:56:21;;;;;;;14.83;7.37;;;;;;;15.67;93.98;65828.75;5131884;28;20212;-76
2022/06/13 08:58:54;;;;;;;8.97;8.10;;;;;;;15.64;97.41;65824.84;5118887;28;20191;-74
2022/06/13 09:01:38;;;;;;;8.90;8.17;;;;;;;15.71;97.78;65832.09;5130453;28;20690;-75
2022/06/13 09:04:22;;;;;;;12.43;7.57;;;;;;;15.82;95.04;65847.50;5112889;28;20569;-75
2022/06/13 09:06:57;;;;;;;8.07;6.23;;;;;;;16.07;94.69;65872.16;5133942;28;20205;-75
2022/06/13 09:09:30;;;;;;;7.47;6.77;;;;;;;16.12;94.53;65877.19;5113327;28;20595;-75
2022/06/13 09:12:34;;;;;;;6.90;6.50;;;;;;;15.96;89.81;65863.09;5118254;28;20213;-76
2022/06/13 09:15:06;;;;;;;7.70;7.00;;;;;;;15.92;89.07;65861.25;5116918;28;20231;-75
2022/06/13 09:17:44;;;;;;;5.33;5.07;;;;;;;15.93;83.99;65861.81;5116174;28;20214;-75
2022/06/13 09:20:19;;;;;;;9.20;6.20;;;;;;;;;;5122523;28;20196;-75
2022/06/13 09:22:54;;;;;;;5.60;5.20;;;;;;;15.90;88.29;65859.03;5132322;28;20202;-75
2022/06/13 09:25:34;;;;;;;6.73;5.40;;;;;;;15.77;86.94;65841.94;5112487;28;20227;-74
2022/06/13 09:28:18;;;;;;;10.37;5.30;;;;;;;15.80;90.02;65844.72;5124302;28;20214;-74
2022/06/13 09:30:51;;;;;;;8.63;5.33;;;;;;;15.78;90.43;65842.50;5133798;28;20200;-74
2022/06/13 09:33:29;;;;;;;12.67;5.73;;;;;;;15.68;89.74;65829.31;5126476;28;20250;-74
2022/06/13 09:35:58;;;;;;;12.07;5.90;;;;;;;15.72;90.58;65835.81;5113547;28;20566;-74
2022/06/13 09:38:34;;;;;;;13.80;5.87;;;;;;;15.96;90.67;65862.53;5121653;28;20196;-75
2022/06/13 09:41:03;;;;;;;5.70;5.40;;;;;;;16.10;93.40;65877.59;5124949;27;20576;-74
2022/06/13 09:43:39;;;;;;;5.93;5.53;;;;;;;16.36;91.58;65905.97;5116155;27;20824;-74
2022/06/13 09:46:25;;;;;;;6.37;5.90;;;;;;;16.46;87.35;65906.66;5105322;28;20208;-74
2022/06/13 09:49:07;;;;;;;6.10;5.50;;;;;;;16.55;88.71;65926.59;5116880;28;20180;-75
2022/06/13 09:51:50;;;;;;;5.37;5.07;;;;;;;;;;5117099;27;20273;-74
2022/06/13 09:54:17;;;;;;;5.90;5.40;;;;;;;;;;5116182;27;20216;-74
2022/06/13 09:56:58;;;;;;;6.07;5.60;;;;;;;17.05;83.87;65981.78;5129978;27;20257;-74
2022/06/13 09:59:36;;;;;;;6.10;5.03;;;;;;;;;;5131625;27;20200;-74
2022/06/13 10:02:13;;;;;;;4.67;4.17;;;;;;;17.17;85.05;65992.56;5136881;27;20755;-74
2022/06/13 10:04:56;;;;;;;7.50;3.57;;;;;;;17.39;80.66;66019.16;5134566;27;20249;-75
2022/06/13 10:07:27;;;;;;;4.13;3.93;;;;;;;;;;5122572;27;20204;-74
2022/06/13 10:10:15;;;;;;;4.17;3.80;;;;;;;17.23;76.27;65999.25;5118337;27;20229;-74
2022/06/13 10:12:42;;;;;;;5.90;4.23;;;;;;;;;;5129561;27;20190;-74
2022/06/13 10:15:40;;;;;;;3.77;3.57;;;;;;;17.34;75.29;66006.25;5134763;27;20211;-74
2022/06/13 10:18:19;;;;;;;3.73;3.73;;;;;;;;;;5124836;27;20180;-73
2022/06/13 10:20:53;;;;;;;4.03;3.73;;;;;;;;;;5115273;27;20215;-73
2022/06/13 10:23:52;;;;;;;4.10;4.03;;;;;;;16.94;76.29;65967.47;5114371;28;20204;-73
2022/06/13 10:26:24;;;;;;;4.43;3.60;;;;;;;;;;5110380;28;20632;-74
2022/06/13 10:29:08;;;;;;;6.13;4.33;;;;;;;;;;5116362;28;20178;-75
2022/06/13 10:31:51;;;;;;;4.37;4.13;;;;;;;17.40;79.64;66012.38;5114622;28;20197;-74
2022/06/13 10:34:48;;;;;;;4.37;4.23;;;;;;;17.45;75.56;66025.28;5115709;28;20619;-74
2022/06/13 10:37:18;;;;;;;4.87;4.47;;;;;;;;;;5116242;28;20178;-74
2022/06/13 10:39:48;;;;;;;5.23;3.83;;;;;;;17.86;72.80;66067.84;5115888;28;20200;-74
2022/06/13 10:42:19;;;;;;;3.03;3.03;;;;;;;17.88;74.88;66070.09;5115424;28;20283;-75
2022/06/13 10:44:46;;;;;;;3.93;3.67;;;;;;;17.95;70.61;66080.50;5115845;28;20636;-75
2022/06/13 10:47:18;;;;;;;5.50;2.90;;;;;;;17.89;70.37;66076.44;5115461;28;20207;-74
2022/06/13 10:49:47;;;;;;;3.30;3.20;;;;;;;;;;5115779;28;20202;-75
2022/06/13 10:52:19;;;;;;;3.80;3.60;;;;;;;17.39;67.97;66016.53;5114866;28;20258;-74
2022/06/13 10:54:46;;;;;;;3.30;3.03;;;;;;;;;;5115590;28;20166;-74
2022/06/13 10:57:21;;;;;;;2.57;2.57;;;;;;;17.14;66.43;65991.81;5115202;28;20282;-74
2022/06/13 11:00:07;;;;;;;2.57;2.37;;;;;;;16.99;67.59;65972.47;5115483;28;20251;-75
2022/06/13 11:02:34;;;;;;;3.63;3.40;;;;;;;17.09;71.13;65986.25;5114971;28;20713;-74
2022/06/13 11:05:10;;;;;;;2.63;2.63;;;;;;;16.99;70.15;65975.09;5115414;28;20165;-74
2022/06/13 11:07:58;;;;;;;2.80;2.67;;;;;;;16.94;74.08;65970.09;5115133;28;20177;-74
2022/06/13 11:10:39;;;;;;;7.80;3.17;;;;;;;17.28;73.26;66004.25;5114872;28;20185;-74
2022/06/13 11:13:13;;;;;;;3.37;3.07;;;;;;;17.51;73.01;66031.97;5115216;28;20177;-74
2022/06/13 11:24:16;;;;;;;2.10;2.00;;;;;;;17.75;60.27;66064.00;5115049;28;20189;-74
2022/06/13 11:29:32;;;;;;;2.33;2.23;;;;;;;17.97;63.73;66082.19;5115009;28;20188;-73
2022/06/13 11:32:03;;;;;;;2.33;2.33;;;;;;;18.10;67.66;66094.06;5114806;28;20213;-73
2022/06/13 11:34:32;;;;;;;1.90;1.90;;;;;;;;;;5096819;28;20184;-73
2022/06/13 11:37:15;;;;;;;2.20;2.20;;;;;;;;;;5115014;28;20188;-74
2022/06/13 11:39:47;;;;;;;1.60;1.60;;;;;;;18.31;63.86;66117.50;5114976;28;20182;-73
2022/06/13 11:42:16;;;;;;;2.53;1.63;;;;;;;;;;5114949;28;20220;-74
2022/06/13 11:44:44;;;;;;;1.70;1.70;;;;;;;;;;5114378;28;20212;-74
2022/06/13 11:47:11;;;;;;;2.73;2.27;;;;;;;18.24;60.67;66109.69;5114315;28;20185;-74
2022/06/13 11:49:39;;;;;;;2.20;2.20;;;;;;;;;;5114239;28;20246;-73
2022/06/13 11:55:22;;;;;;;6.20;2.27;;;;;;;17.50;69.32;66036.66;5112490;27;20192;-73
2022/06/13 11:58:00;;;;;;;2.07;2.07;;;;;;;17.32;67.42;66016.59;5113096;28;20242;-74
2022/06/13 12:00:37;;;;;;;1.27;1.27;;;;;;;;;;5117028;27;20243;-73
2022/06/13 12:03:15;;;;;;;5.17;1.70;;;;;;;17.16;63.34;65994.06;5123007;27;20200;-73
2022/06/13 12:05:42;;;;;;;4.03;1.97;;;;;;;;;;5132582;27;20213;-74
2022/06/13 12:08:17;;;;;;;1.93;1.93;;;;;;;17.29;67.56;66013.25;5126273;27;20213;-73
2022/06/13 12:11:19;;;;;;;1.30;1.30;;;;;;;17.32;66.54;66009.28;5134695;27;20204;-73
2022/06/13 12:13:46;;;;;;;1.80;1.70;;;;;;;;;;5119106;27;20247;-73
2022/06/13 12:16:27;;;;;;;1.80;1.77;;;;;;;;;;5127276;27;20191;-73
2022/06/13 12:19:03;;;;;;;1.87;1.77;;;;;;;17.42;72.86;66024.56;5134308;27;20173;-74
2022/06/13 12:21:57;;;;;;;2.00;2.00;;;;;;;17.34;66.00;66011.50;5134752;27;20707;-74
2022/06/13 12:24:55;;;;;;;2.47;2.47;;;;;;;17.27;68.92;66003.69;5134858;27;20188;-75
2022/06/13 12:27:37;;;;;;;1.70;1.70;;;;;;;17.17;69.73;65992.56;5134292;28;20229;-73
2022/06/13 12:30:11;;;;;;;2.47;2.33;;;;;;;17.27;70.76;66011.56;5134520;28;20650;-74
2022/06/13 12:32:44;;;;;;;1.63;1.63;;;;;;;17.69;70.72;66057.28;5134491;28;20208;-73
2022/06/13 12:35:31;;;;;;;1.90;1.90;;;;;;;17.96;65.40;66079.00;5134752;28;20172;-74
2022/06/13 12:38:35;;;;;;;2.47;2.37;;;;;;;18.23;66.53;66103.31;5116169;28;20234;-73
2022/06/13 12:41:18;;;;;;;2.03;2.00;;;;;;;18.38;64.61;66135.81;5107697;28;20677;-73
2022/06/13 12:44:11;;;;;;;2.60;1.93;;;;;;;18.58;67.85;66146.53;5118379;28;20197;-72
2022/06/13 12:47:17;;;;;;;2.00;1.90;;;;;;;18.88;65.60;66182.09;5112176;28;20542;-74
2022/06/13 12:50:04;;;;;;;2.10;2.10;;;;;;;18.84;70.15;66178.19;5047332;28;20197;-72
2022/06/13 12:52:49;;;;;;;1.70;1.67;;;;;;;18.66;67.81;66160.72;5110432;28;20223;-74
2022/06/13 12:55:36;;;;;;;1.63;1.63;;;;;;;18.51;68.43;66141.34;5107619;28;20716;-75
2022/06/13 12:58:11;;;;;;;1.33;1.33;;;;;;;18.05;67.37;66091.66;5115623;28;20655;-74